Time,TemperatureF,DewpointF,PressureIn,WindDirection,WindDirectionDegrees,WindSpeedMPH,WindSpeedGustMPH,Humidity,HourlyPrecipIn,Conditions,Clouds,dailyrainin,SolarRadiationWatts/m^2,SoftwareType,DateUTC
2013-04-21 00:23:00,37.0,20.0,-100.00,SSW,205,4.0,12.0,50,0.00,,,0.02,1.000000,,2013-04-21 04:23:00,
2013-04-21 00:33:00,37.0,20.0,-100.00,SSW,205,4.0,12.0,50,0.00,,,0.02,1.000000,,2013-04-21 04:33:00,
2013-04-21 00:42:00,37.0,20.0,-100.00,SSW,205,4.0,12.0,50,0.00,,,0.02,1.000000,,2013-04-21 04:42:00,
2013-04-21 00:53:00,37.0,20.0,-100.00,SSW,205,4.0,12.0,50,0.00,,,0.02,1.000000,,2013-04-21 04:53:00,
2013-04-21 01:22:00,35.0,22.0,-100.00,West,273,3.0,11.0,58,0.00,,,0.00,1.000000,,2013-04-21 05:22:00,
2013-04-21 01:32:00,35.0,22.0,-100.00,West,273,3.0,11.0,58,0.00,,,0.00,1.000000,,2013-04-21 05:32:00,
2013-04-21 01:42:00,35.0,22.0,-100.00,West,273,3.0,11.0,58,0.00,,,0.00,1.000000,,2013-04-21 05:42:00,
2013-04-21 01:52:00,35.0,22.0,-100.00,West,273,3.0,11.0,58,0.00,,,0.00,1.000000,,2013-04-21 05:52:00,
2013-04-21 02:22:00,33.0,20.0,-100.00,South,191,3.0,8.0,58,0.00,,,0.00,1.000000,,2013-04-21 06:22:00,
2013-04-21 02:32:00,33.0,20.0,-100.00,South,191,3.0,8.0,58,0.00,,,0.00,1.000000,,2013-04-21 06:32:00,
2013-04-21 02:42:00,33.0,20.0,-100.00,South,191,3.0,8.0,58,0.00,,,0.00,1.000000,,2013-04-21 06:42:00,
2013-04-21 02:52:00,33.0,20.0,-100.00,South,191,3.0,8.0,58,0.00,,,0.00,1.000000,,2013-04-21 06:52:00,
2013-04-21 03:22:00,32.0,20.0,-100.00,SW,227,3.0,7.0,62,0.00,,,0.00,1.000000,,2013-04-21 07:22:00,
2013-04-21 03:32:00,32.0,20.0,-100.00,SW,227,3.0,7.0,62,0.00,,,0.00,1.000000,,2013-04-21 07:32:00,
2013-04-21 03:42:00,32.0,20.0,-100.00,SW,227,3.0,7.0,62,0.00,,,0.00,1.000000,,2013-04-21 07:42:00,
2013-04-21 03:52:00,32.0,20.0,-100.00,SW,227,3.0,7.0,62,0.00,,,0.00,1.000000,,2013-04-21 07:52:00,
2013-04-21 04:22:00,30.0,20.0,-100.00,SW,222,3.0,7.0,67,0.00,,,0.00,1.000000,,2013-04-21 08:22:00,
2013-04-21 04:32:00,30.0,20.0,-100.00,SW,222,3.0,7.0,67,0.00,,,0.00,1.000000,,2013-04-21 08:32:00,
2013-04-21 04:42:00,30.0,20.0,-100.00,SW,222,3.0,7.0,67,0.00,,,0.00,1.000000,,2013-04-21 08:42:00,
2013-04-21 04:52:00,30.0,20.0,-100.00,SW,222,3.0,7.0,67,0.00,,,0.00,1.000000,,2013-04-21 08:52:00,
2013-04-21 05:21:00,31.0,20.0,-100.00,SSW,212,3.0,8.0,62,0.00,,,0.00,1.000000,,2013-04-21 09:21:00,
2013-04-21 05:33:00,31.0,20.0,-100.00,SSW,212,3.0,8.0,62,0.00,,,0.00,1.000000,,2013-04-21 09:33:00,
2013-04-21 05:43:00,31.0,20.0,-100.00,SSW,212,3.0,8.0,62,0.00,,,0.00,1.000000,,2013-04-21 09:43:00,
2013-04-21 05:53:00,31.0,20.0,-100.00,SSW,212,3.0,8.0,62,0.00,,,0.00,1.000000,,2013-04-21 09:53:00,
2013-04-21 06:22:00,29.0,21.0,-100.00,SW,216,2.0,9.0,73,0.00,,,0.00,1.000000,,2013-04-21 10:22:00,
2013-04-21 06:32:00,29.0,21.0,-100.00,SW,216,2.0,9.0,73,0.00,,,0.00,1.000000,,2013-04-21 10:32:00,
2013-04-21 06:42:00,29.0,21.0,-100.00,SW,216,2.0,9.0,73,0.00,,,0.00,1.000000,,2013-04-21 10:42:00,
2013-04-21 06:52:00,29.0,21.0,-100.00,SW,216,2.0,9.0,73,0.00,,,0.00,1.000000,,2013-04-21 10:52:00,
2013-04-21 07:22:00,31.0,22.0,-100.00,WSW,238,3.0,6.0,70,0.00,,,0.00,18.000000,,2013-04-21 11:22:00,
2013-04-21 07:34:00,31.0,22.0,-100.00,WSW,238,3.0,6.0,70,0.00,,,0.00,18.000000,,2013-04-21 11:34:00,
2013-04-21 07:42:00,31.0,22.0,-100.00,WSW,238,3.0,6.0,70,0.00,,,0.00,18.000000,,2013-04-21 11:42:00,
2013-04-21 07:52:00,31.0,22.0,-100.00,WSW,238,3.0,6.0,70,0.00,,,0.00,18.000000,,2013-04-21 11:52:00,
2013-04-21 08:22:00,33.0,22.0,-100.00,SSW,213,4.0,10.0,63,0.00,,,0.00,163.000000,,2013-04-21 12:22:00,
2013-04-21 08:32:00,33.0,22.0,-100.00,SSW,213,4.0,10.0,63,0.00,,,0.00,163.000000,,2013-04-21 12:32:00,
2013-04-21 08:42:00,33.0,22.0,-100.00,SSW,213,4.0,10.0,63,0.00,,,0.00,163.000000,,2013-04-21 12:42:00,
2013-04-21 08:52:00,33.0,22.0,-100.00,SSW,213,4.0,10.0,63,0.00,,,0.00,163.000000,,2013-04-21 12:52:00,
2013-04-21 09:22:00,34.0,22.0,-100.00,West,274,5.0,15.0,62,0.00,,,0.00,278.000000,,2013-04-21 13:22:00,
2013-04-21 09:32:00,34.0,22.0,-100.00,West,274,5.0,15.0,62,0.00,,,0.00,278.000000,,2013-04-21 13:32:00,
2013-04-21 09:42:00,34.0,22.0,-100.00,West,274,5.0,15.0,62,0.00,,,0.00,278.000000,,2013-04-21 13:42:00,
2013-04-21 09:52:00,34.0,22.0,-100.00,West,274,5.0,15.0,62,0.00,,,0.00,278.000000,,2013-04-21 13:52:00,
2013-04-21 10:22:00,37.0,23.0,-100.00,NNW,332,3.0,21.0,57,0.00,,,0.00,504.000000,,2013-04-21 14:22:00,
2013-04-21 10:32:00,37.0,23.0,-100.00,NNW,332,3.0,21.0,57,0.00,,,0.00,504.000000,,2013-04-21 14:32:00,
2013-04-21 10:42:00,37.0,23.0,-100.00,NNW,332,3.0,21.0,57,0.00,,,0.00,504.000000,,2013-04-21 14:42:00,
2013-04-21 10:52:00,37.0,23.0,-100.00,NNW,332,3.0,21.0,57,0.00,,,0.00,504.000000,,2013-04-21 14:52:00,
2013-04-21 11:22:00,39.0,25.0,-100.00,NE,44,9.0,16.0,57,0.00,,,0.00,648.000000,,2013-04-21 15:22:00,
2013-04-21 11:33:00,39.0,25.0,-100.00,NE,44,9.0,16.0,57,0.00,,,0.00,648.000000,,2013-04-21 15:33:00,
2013-04-21 11:43:00,39.0,25.0,-100.00,NE,44,9.0,16.0,57,0.00,,,0.00,648.000000,,2013-04-21 15:43:00,
2013-04-21 11:53:00,39.0,25.0,-100.00,NE,44,9.0,16.0,57,0.00,,,0.00,648.000000,,2013-04-21 15:53:00,
2013-04-21 12:23:00,44.0,25.0,-100.00,NE,39,4.0,15.0,46,0.00,,,0.00,853.000000,,2013-04-21 16:23:00,
2013-04-21 12:33:00,44.0,25.0,-100.00,NE,39,4.0,15.0,46,0.00,,,0.00,853.000000,,2013-04-21 16:33:00,
2013-04-21 12:42:00,44.0,25.0,-100.00,NE,39,4.0,15.0,46,0.00,,,0.00,853.000000,,2013-04-21 16:42:00,
2013-04-21 12:52:00,44.0,25.0,-100.00,NE,39,4.0,15.0,46,0.00,,,0.00,853.000000,,2013-04-21 16:52:00,
2013-04-21 13:23:00,44.0,23.0,-100.00,North,7,4.0,15.0,43,0.00,,,0.00,828.000000,,2013-04-21 17:23:00,
2013-04-21 13:32:00,44.0,23.0,-100.00,North,7,4.0,15.0,43,0.00,,,0.00,828.000000,,2013-04-21 17:32:00,
2013-04-21 13:42:00,44.0,23.0,-100.00,North,7,4.0,15.0,43,0.00,,,0.00,828.000000,,2013-04-21 17:42:00,
2013-04-21 13:52:00,44.0,23.0,-100.00,North,7,4.0,15.0,43,0.00,,,0.00,828.000000,,2013-04-21 17:52:00,
2013-04-21 14:22:00,47.0,23.0,-100.00,North,10,4.0,14.0,38,0.00,,,0.00,865.000000,,2013-04-21 18:22:00,
2013-04-21 14:33:00,47.0,23.0,-100.00,North,10,4.0,14.0,38,0.00,,,0.00,865.000000,,2013-04-21 18:33:00,
2013-04-21 14:42:00,47.0,23.0,-100.00,North,10,4.0,14.0,38,0.00,,,0.00,865.000000,,2013-04-21 18:42:00,
2013-04-21 14:52:00,47.0,23.0,-100.00,North,10,4.0,14.0,38,0.00,,,0.00,865.000000,,2013-04-21 18:52:00,
2013-04-21 15:22:00,49.0,25.0,-100.00,ENE,60,6.0,16.0,39,0.00,,,0.00,850.000000,,2013-04-21 19:22:00,
2013-04-21 15:32:00,49.0,25.0,-100.00,ENE,60,6.0,16.0,39,0.00,,,0.00,850.000000,,2013-04-21 19:32:00,
2013-04-21 15:42:00,49.0,25.0,-100.00,ENE,60,6.0,16.0,39,0.00,,,0.00,850.000000,,2013-04-21 19:42:00,
2013-04-21 15:52:00,49.0,25.0,-100.00,ENE,60,6.0,16.0,39,0.00,,,0.00,850.000000,,2013-04-21 19:52:00,
2013-04-21 16:22:00,49.0,24.0,-100.00,NE,51,7.0,15.0,37,0.00,,,0.00,813.000000,,2013-04-21 20:22:00,
2013-04-21 16:32:00,49.0,24.0,-100.00,NE,51,7.0,15.0,37,0.00,,,0.00,813.000000,,2013-04-21 20:32:00,
2013-04-21 16:42:00,49.0,24.0,-100.00,NE,51,7.0,15.0,37,0.00,,,0.00,813.000000,,2013-04-21 20:42:00,
2013-04-21 16:52:00,49.0,24.0,-100.00,NE,51,7.0,15.0,37,0.00,,,0.00,813.000000,,2013-04-21 20:52:00,
2013-04-21 17:22:00,50.0,24.0,-100.00,ENE,78,9.0,15.0,36,0.00,,,0.00,586.000000,,2013-04-21 21:22:00,
2013-04-21 17:33:00,50.0,24.0,-100.00,ENE,78,9.0,15.0,36,0.00,,,0.00,586.000000,,2013-04-21 21:33:00,
2013-04-21 17:43:00,50.0,24.0,-100.00,ENE,78,9.0,15.0,36,0.00,,,0.00,586.000000,,2013-04-21 21:43:00,
2013-04-21 17:53:00,50.0,24.0,-100.00,ENE,78,9.0,15.0,36,0.00,,,0.00,586.000000,,2013-04-21 21:53:00,
2013-04-21 18:22:00,50.0,22.0,-100.00,ESE,110,6.0,13.0,33,0.00,,,0.00,468.000000,,2013-04-21 22:22:00,
2013-04-21 18:33:00,50.0,22.0,-100.00,ESE,110,6.0,13.0,33,0.00,,,0.00,468.000000,,2013-04-21 22:33:00,
2013-04-21 18:43:00,50.0,22.0,-100.00,ESE,110,6.0,13.0,33,0.00,,,0.00,468.000000,,2013-04-21 22:43:00,
2013-04-21 18:52:00,50.0,22.0,-100.00,ESE,110,6.0,13.0,33,0.00,,,0.00,468.000000,,2013-04-21 22:52:00,
2013-04-21 19:22:00,49.0,24.0,-100.00,ENE,74,6.0,11.0,37,0.00,,,0.00,184.000000,,2013-04-21 23:22:00,
2013-04-21 19:32:00,49.0,24.0,-100.00,ENE,74,6.0,11.0,37,0.00,,,0.00,184.000000,,2013-04-21 23:32:00,
2013-04-21 19:42:00,49.0,24.0,-100.00,ENE,74,6.0,11.0,37,0.00,,,0.00,184.000000,,2013-04-21 23:42:00,
2013-04-21 19:52:00,49.0,24.0,-100.00,ENE,74,6.0,11.0,37,0.00,,,0.00,184.000000,,2013-04-21 23:52:00,
2013-04-21 20:22:00,46.0,25.0,-100.00,NNE,27,2.0,6.0,43,0.00,,,0.00,26.000000,,2013-04-22 00:22:00,
2013-04-21 20:32:00,46.0,25.0,-100.00,NNE,27,2.0,6.0,43,0.00,,,0.00,26.000000,,2013-04-22 00:32:00,
2013-04-21 20:42:00,46.0,25.0,-100.00,NNE,27,2.0,6.0,43,0.00,,,0.00,26.000000,,2013-04-22 00:42:00,
2013-04-21 20:51:00,46.0,25.0,-100.00,NNE,27,2.0,6.0,43,0.00,,,0.00,26.000000,,2013-04-22 00:51:00,
2013-04-21 21:22:00,42.0,27.0,-100.00,South,170,0.0,5.0,54,0.00,,,0.00,1.000000,,2013-04-22 01:22:00,
2013-04-21 21:32:00,42.0,27.0,-100.00,South,170,0.0,5.0,54,0.00,,,0.00,1.000000,,2013-04-22 01:32:00,
2013-04-21 21:42:00,42.0,27.0,-100.00,South,170,0.0,5.0,54,0.00,,,0.00,1.000000,,2013-04-22 01:42:00,
2013-04-21 21:52:00,42.0,27.0,-100.00,South,170,0.0,5.0,54,0.00,,,0.00,1.000000,,2013-04-22 01:52:00,
2013-04-21 22:22:00,40.0,30.0,-100.00,ESE,107,2.0,5.0,67,0.00,,,0.00,1.000000,,2013-04-22 02:22:00,
2013-04-21 22:32:00,40.0,30.0,-100.00,ESE,107,2.0,5.0,67,0.00,,,0.00,1.000000,,2013-04-22 02:32:00,
2013-04-21 22:42:00,40.0,30.0,-100.00,ESE,107,2.0,5.0,67,0.00,,,0.00,1.000000,,2013-04-22 02:42:00,
2013-04-21 22:52:00,40.0,30.0,-100.00,ESE,107,2.0,5.0,67,0.00,,,0.00,1.000000,,2013-04-22 02:52:00,
2013-04-21 23:22:00,37.0,26.0,-100.00,SE,124,1.0,5.0,63,0.00,,,0.00,1.000000,,2013-04-22 03:22:00,
2013-04-21 23:33:00,37.0,26.0,-100.00,SE,124,1.0,5.0,63,0.00,,,0.00,1.000000,,2013-04-22 03:33:00,
2013-04-21 23:43:00,37.0,26.0,-100.00,SE,124,1.0,5.0,63,0.00,,,0.00,1.000000,,2013-04-22 03:43:00,
2013-04-21 23:52:00,37.0,26.0,-100.00,SE,124,1.0,5.0,63,0.00,,,0.00,1.000000,,2013-04-22 03:52:00,